Decoded Metar for KMTK ( in ) (IATA:) | Meteo·Mobile Aviation Weather
aviador You're here:

KMTK Decoded Metar

in
Report Time2019-10-22 13:35:00
UTC Time2019-10-22 13:49:11
Flight Rules vfr VFR
Wind010° at 12 Gusting to 22 kt
Visibility9999 m
Phenomena:N/A
Clouds:N/A
Expected CloudBase > 2,000 ft AGL from Temp-Dew spread
CeilingNone
Temp22°C
Dew Point17°C (73% RH)
AAT20.0°C
QNH1019 hPa
Raw Report
KMTK 221335Z AUTO 01012G22KT 340V060 10SM 22/17 A3008 RMK A01=

Extra information for KMTK:More info

Social comments